sensor_id;sensor_type;location;lat;lon;timestamp;temperature;humidity
19878;DHT22;10101;52.204;9.910;2022-10-20T00:01:58;5.20;99.90
19878;DHT22;10101;52.204;9.910;2022-10-20T00:04:24;5.20;99.90
19878;DHT22;10101;52.204;9.910;2022-10-20T00:06:52;5.20;99.90
19878;DHT22;10101;52.204;9.910;2022-10-20T00:09:19;5.10;99.90
19878;DHT22;10101;52.204;9.910;2022-10-20T00:11:46;5.10;99.90
19878;DHT22;10101;52.204;9.910;2022-10-20T00:14:13;4.90;99.90
19878;DHT22;10101;52.204;9.910;2022-10-20T00:16:39;4.90;99.90
19878;DHT22;10101;52.204;9.910;2022-10-20T00:19:06;4.80;99.90
19878;DHT22;10101;52.204;9.910;2022-10-20T00:21:33;4.50;99.90
19878;DHT22;10101;52.204;9.910;2022-10-20T00:24:01;4.50;99.90
19878;DHT22;10101;52.204;9.910;2022-10-20T00:26:29;4.50;99.90
19878;DHT22;10101;52.204;9.910;2022-10-20T00:28:57;4.50;99.90
19878;DHT22;10101;52.204;9.910;2022-10-20T00:31:24;4.10;99.90
19878;DHT22;10101;52.204;9.910;2022-10-20T00:33:51;4.20;99.90
19878;DHT22;10101;52.204;9.910;2022-10-20T00:36:20;4.10;99.90
19878;DHT22;10101;52.204;9.910;2022-10-20T00:38:47;4.00;99.90
19878;DHT22;10101;52.204;9.910;2022-10-20T00:41:18;4.00;99.90
19878;DHT22;10101;52.204;9.910;2022-10-20T00:43:48;4.00;99.90
19878;DHT22;10101;52.204;9.910;2022-10-20T00:46:17;4.00;99.90
19878;DHT22;10101;52.204;9.910;2022-10-20T00:48:47;3.90;99.90
19878;DHT22;10101;52.204;9.910;2022-10-20T00:51:17;3.90;99.90
19878;DHT22;10101;52.204;9.910;2022-10-20T00:53:47;3.90;99.90
19878;DHT22;10101;52.204;9.910;2022-10-20T00:56:15;3.90;99.90
19878;DHT22;10101;52.204;9.910;2022-10-20T00:58:42;3.70;99.90
19878;DHT22;10101;52.204;9.910;2022-10-20T01:01:10;3.70;99.90
19878;DHT22;10101;52.204;9.910;2022-10-20T01:03:43;3.70;99.90
19878;DHT22;10101;52.204;9.910;2022-10-20T01:06:12;3.90;99.90
19878;DHT22;10101;52.204;9.910;2022-10-20T01:08:39;3.90;99.90
19878;DHT22;10101;52.204;9.910;2022-10-20T01:11:16;3.80;99.90
19878;DHT22;10101;52.204;9.910;2022-10-20T01:13:56;3.80;99.90
19878;DHT22;10101;52.204;9.910;2022-10-20T01:16:31;3.70;99.90
19878;DHT22;10101;52.204;9.910;2022-10-20T01:19:13;3.70;99.90
19878;DHT22;10101;52.204;9.910;2022-10-20T01:21:58;3.90;99.90
19878;DHT22;10101;52.204;9.910;2022-10-20T01:24:48;4.00;99.90
19878;DHT22;10101;52.204;9.910;2022-10-20T01:27:30;4.00;99.90
19878;DHT22;10101;52.204;9.910;2022-10-20T01:30:06;4.10;99.90
19878;DHT22;10101;52.204;9.910;2022-10-20T01:33:00;4.20;99.90
19878;DHT22;10101;52.204;9.910;2022-10-20T01:35:38;4.20;99.90
19878;DHT22;10101;52.204;9.910;2022-10-20T01:38:13;4.10;99.90
19878;DHT22;10101;52.204;9.910;2022-10-20T01:40:44;4.00;99.90
19878;DHT22;10101;52.204;9.910;2022-10-20T01:43:18;3.80;99.90
19878;DHT22;10101;52.204;9.910;2022-10-20T01:45:47;3.60;99.90
19878;DHT22;10101;52.204;9.910;2022-10-20T01:48:17;3.50;99.90
19878;DHT22;10101;52.204;9.910;2022-10-20T01:50:45;3.60;99.90
19878;DHT22;10101;52.204;9.910;2022-10-20T01:53:12;3.40;99.90
19878;DHT22;10101;52.204;9.910;2022-10-20T01:55:39;3.30;99.90
19878;DHT22;10101;52.204;9.910;2022-10-20T01:58:37;3.40;99.90
19878;DHT22;10101;52.204;9.910;2022-10-20T02:01:12;3.50;99.90
19878;DHT22;10101;52.204;9.910;2022-10-20T02:03:47;3.20;99.90
19878;DHT22;10101;52.204;9.910;2022-10-20T02:06:24;3.30;99.90
19878;DHT22;10101;52.204;9.910;2022-10-20T02:08:57;3.40;99.90
19878;DHT22;10101;52.204;9.910;2022-10-20T02:11:27;3.40;99.90
19878;DHT22;10101;52.204;9.910;2022-10-20T02:13:57;3.60;99.90
19878;DHT22;10101;52.204;9.910;2022-10-20T02:16:28;3.70;99.90
19878;DHT22;10101;52.204;9.910;2022-10-20T02:18:57;3.50;99.90
19878;DHT22;10101;52.204;9.910;2022-10-20T02:21:24;3.10;99.90
19878;DHT22;10101;52.204;9.910;2022-10-20T02:23:51;3.30;99.90
19878;DHT22;10101;52.204;9.910;2022-10-20T02:26:22;3.20;99.90
19878;DHT22;10101;52.204;9.910;2022-10-20T02:28:53;3.10;99.90
19878;DHT22;10101;52.204;9.910;2022-10-20T02:31:23;3.10;99.90
19878;DHT22;10101;52.204;9.910;2022-10-20T02:33:50;3.00;99.90
19878;DHT22;10101;52.204;9.910;2022-10-20T02:36:19;2.80;99.90
19878;DHT22;10101;52.204;9.910;2022-10-20T02:38:46;2.80;99.90
19878;DHT22;10101;52.204;9.910;2022-10-20T02:41:13;3.00;99.90
19878;DHT22;10101;52.204;9.910;2022-10-20T02:43:40;2.90;99.90
19878;DHT22;10101;52.204;9.910;2022-10-20T02:46:07;3.00;99.90
19878;DHT22;10101;52.204;9.910;2022-10-20T02:48:35;3.00;99.90
19878;DHT22;10101;52.204;9.910;2022-10-20T02:51:03;3.00;99.90
19878;DHT22;10101;52.204;9.910;2022-10-20T02:53:30;2.80;99.90
19878;DHT22;10101;52.204;9.910;2022-10-20T02:55:56;2.80;99.90
19878;DHT22;10101;52.204;9.910;2022-10-20T02:58:24;2.70;99.90
19878;DHT22;10101;52.204;9.910;2022-10-20T03:00:51;2.60;99.90
19878;DHT22;10101;52.204;9.910;2022-10-20T03:03:17;2.70;99.90
19878;DHT22;10101;52.204;9.910;2022-10-20T03:05:46;2.80;99.90
19878;DHT22;10101;52.204;9.910;2022-10-20T03:08:13;2.60;99.90
19878;DHT22;10101;52.204;9.910;2022-10-20T03:10:40;2.70;99.90
19878;DHT22;10101;52.204;9.910;2022-10-20T03:13:07;2.60;99.90
19878;DHT22;10101;52.204;9.910;2022-10-20T03:15:34;2.60;99.90
19878;DHT22;10101;52.204;9.910;2022-10-20T03:18:02;2.80;99.90
19878;DHT22;10101;52.204;9.910;2022-10-20T03:20:29;2.80;99.90
19878;DHT22;10101;52.204;9.910;2022-10-20T03:22:57;2.50;99.90
19878;DHT22;10101;52.204;9.910;2022-10-20T03:25:23;2.50;99.90
19878;DHT22;10101;52.204;9.910;2022-10-20T03:27:50;2.60;99.90
19878;DHT22;10101;52.204;9.910;2022-10-20T03:30:17;2.60;99.90
19878;DHT22;10101;52.204;9.910;2022-10-20T03:32:44;2.60;99.90
19878;DHT22;10101;52.204;9.910;2022-10-20T03:35:11;2.60;99.90
19878;DHT22;10101;52.204;9.910;2022-10-20T03:37:37;2.70;99.90
19878;DHT22;10101;52.204;9.910;2022-10-20T03:40:07;2.60;99.90
19878;DHT22;10101;52.204;9.910;2022-10-20T03:42:34;2.50;99.90
19878;DHT22;10101;52.204;9.910;2022-10-20T03:45:00;2.60;99.90
19878;DHT22;10101;52.204;9.910;2022-10-20T03:47:27;2.70;99.90
19878;DHT22;10101;52.204;9.910;2022-10-20T03:49:54;2.40;99.90
19878;DHT22;10101;52.204;9.910;2022-10-20T03:52:20;2.50;99.90
19878;DHT22;10101;52.204;9.910;2022-10-20T03:54:47;2.70;99.90
19878;DHT22;10101;52.204;9.910;2022-10-20T03:57:16;2.70;99.90
19878;DHT22;10101;52.204;9.910;2022-10-20T03:59:42;2.50;99.90
19878;DHT22;10101;52.204;9.910;2022-10-20T04:02:21;2.50;99.90
19878;DHT22;10101;52.204;9.910;2022-10-20T04:04:48;2.40;99.90
19878;DHT22;10101;52.204;9.910;2022-10-20T04:07:15;2.40;99.90
19878;DHT22;10101;52.204;9.910;2022-10-20T04:09:42;2.40;99.90
19878;DHT22;10101;52.204;9.910;2022-10-20T04:12:09;2.30;99.90
19878;DHT22;10101;52.204;9.910;2022-10-20T04:14:37;2.30;99.90
19878;DHT22;10101;52.204;9.910;2022-10-20T04:17:05;2.40;99.90
19878;DHT22;10101;52.204;9.910;2022-10-20T04:19:32;2.20;99.90
19878;DHT22;10101;52.204;9.910;2022-10-20T04:21:58;2.30;99.90
19878;DHT22;10101;52.204;9.910;2022-10-20T04:24:25;2.30;99.90
19878;DHT22;10101;52.204;9.910;2022-10-20T04:26:52;2.30;99.90
19878;DHT22;10101;52.204;9.910;2022-10-20T04:29:18;2.40;99.90
19878;DHT22;10101;52.204;9.910;2022-10-20T04:31:46;2.30;99.90
19878;DHT22;10101;52.204;9.910;2022-10-20T04:34:13;2.30;99.90
19878;DHT22;10101;52.204;9.910;2022-10-20T04:36:40;2.40;99.90
19878;DHT22;10101;52.204;9.910;2022-10-20T04:39:07;2.50;99.90
19878;DHT22;10101;52.204;9.910;2022-10-20T04:41:34;2.60;99.90
19878;DHT22;10101;52.204;9.910;2022-10-20T04:44:00;2.60;99.90
19878;DHT22;10101;52.204;9.910;2022-10-20T04:46:28;2.50;99.90
19878;DHT22;10101;52.204;9.910;2022-10-20T04:48:56;2.30;99.90
19878;DHT22;10101;52.204;9.910;2022-10-20T04:51:22;2.30;99.90
19878;DHT22;10101;52.204;9.910;2022-10-20T04:53:50;2.30;99.90
19878;DHT22;10101;52.204;9.910;2022-10-20T04:56:18;2.30;99.90
19878;DHT22;10101;52.204;9.910;2022-10-20T04:58:46;2.30;99.90
19878;DHT22;10101;52.204;9.910;2022-10-20T05:01:13;2.40;99.90
19878;DHT22;10101;52.204;9.910;2022-10-20T05:03:40;2.50;99.90
19878;DHT22;10101;52.204;9.910;2022-10-20T05:06:10;2.50;99.90
19878;DHT22;10101;52.204;9.910;2022-10-20T05:08:37;2.40;99.90
19878;DHT22;10101;52.204;9.910;2022-10-20T05:11:05;2.30;99.90
19878;DHT22;10101;52.204;9.910;2022-10-20T05:13:32;2.40;99.90
19878;DHT22;10101;52.204;9.910;2022-10-20T05:15:59;2.50;99.90
19878;DHT22;10101;52.204;9.910;2022-10-20T05:18:25;2.60;99.90
19878;DHT22;10101;52.204;9.910;2022-10-20T05:20:52;2.60;99.90
19878;DHT22;10101;52.204;9.910;2022-10-20T05:23:20;2.70;99.90
19878;DHT22;10101;52.204;9.910;2022-10-20T05:25:47;2.70;99.90
19878;DHT22;10101;52.204;9.910;2022-10-20T05:28:14;2.80;99.90
19878;DHT22;10101;52.204;9.910;2022-10-20T05:30:41;2.80;99.90
19878;DHT22;10101;52.204;9.910;2022-10-20T05:33:08;2.70;99.90
19878;DHT22;10101;52.204;9.910;2022-10-20T05:35:35;2.70;99.90
19878;DHT22;10101;52.204;9.910;2022-10-20T05:38:02;2.70;99.90
19878;DHT22;10101;52.204;9.910;2022-10-20T05:40:30;2.70;99.90
19878;DHT22;10101;52.204;9.910;2022-10-20T05:42:56;2.70;99.90
19878;DHT22;10101;52.204;9.910;2022-10-20T05:45:23;2.90;99.90
19878;DHT22;10101;52.204;9.910;2022-10-20T05:47:50;3.00;99.90
19878;DHT22;10101;52.204;9.910;2022-10-20T05:50:17;3.10;99.90
19878;DHT22;10101;52.204;9.910;2022-10-20T05:52:44;3.30;99.90
19878;DHT22;10101;52.204;9.910;2022-10-20T05:55:10;3.30;99.90
19878;DHT22;10101;52.204;9.910;2022-10-20T05:57:38;3.40;99.90
19878;DHT22;10101;52.204;9.910;2022-10-20T06:00:06;3.50;99.90
19878;DHT22;10101;52.204;9.910;2022-10-20T06:02:33;3.50;99.90
19878;DHT22;10101;52.204;9.910;2022-10-20T06:05:00;3.50;99.90
19878;DHT22;10101;52.204;9.910;2022-10-20T06:07:27;3.50;99.90
19878;DHT22;10101;52.204;9.910;2022-10-20T06:09:53;3.50;99.90
19878;DHT22;10101;52.204;9.910;2022-10-20T06:12:20;3.60;99.90
19878;DHT22;10101;52.204;9.910;2022-10-20T06:14:48;3.70;99.90
19878;DHT22;10101;52.204;9.910;2022-10-20T06:17:15;3.80;99.90
19878;DHT22;10101;52.204;9.910;2022-10-20T06:19:42;3.90;99.90
19878;DHT22;10101;52.204;9.910;2022-10-20T06:22:08;3.90;99.90
19878;DHT22;10101;52.204;9.910;2022-10-20T06:24:35;3.90;99.90
19878;DHT22;10101;52.204;9.910;2022-10-20T06:27:02;4.00;99.90
19878;DHT22;10101;52.204;9.910;2022-10-20T06:29:29;4.00;99.90
19878;DHT22;10101;52.204;9.910;2022-10-20T06:31:57;4.00;99.90
19878;DHT22;10101;52.204;9.910;2022-10-20T06:34:24;4.00;99.90
19878;DHT22;10101;52.204;9.910;2022-10-20T06:36:51;4.10;99.90
19878;DHT22;10101;52.204;9.910;2022-10-20T06:39:20;4.20;99.90
19878;DHT22;10101;52.204;9.910;2022-10-20T06:41:48;4.20;99.90
19878;DHT22;10101;52.204;9.910;2022-10-20T06:44:15;4.20;99.90
19878;DHT22;10101;52.204;9.910;2022-10-20T06:46:42;4.30;99.90
19878;DHT22;10101;52.204;9.910;2022-10-20T06:49:11;4.30;99.90
19878;DHT22;10101;52.204;9.910;2022-10-20T06:51:38;4.40;99.90
19878;DHT22;10101;52.204;9.910;2022-10-20T06:54:05;4.50;99.90
19878;DHT22;10101;52.204;9.910;2022-10-20T06:56:33;4.60;99.90
19878;DHT22;10101;52.204;9.910;2022-10-20T06:59:01;4.70;99.90
19878;DHT22;10101;52.204;9.910;2022-10-20T07:01:29;4.70;99.90
19878;DHT22;10101;52.204;9.910;2022-10-20T07:03:57;4.70;99.90
19878;DHT22;10101;52.204;9.910;2022-10-20T07:06:27;4.80;99.90
19878;DHT22;10101;52.204;9.910;2022-10-20T07:08:55;4.90;99.90
19878;DHT22;10101;52.204;9.910;2022-10-20T07:11:23;4.90;99.90
19878;DHT22;10101;52.204;9.910;2022-10-20T07:13:51;5.00;99.90
19878;DHT22;10101;52.204;9.910;2022-10-20T07:16:19;5.00;99.90
19878;DHT22;10101;52.204;9.910;2022-10-20T07:18:46;5.10;99.90
19878;DHT22;10101;52.204;9.910;2022-10-20T07:21:15;5.20;99.90
19878;DHT22;10101;52.204;9.910;2022-10-20T07:23:43;5.20;99.90
19878;DHT22;10101;52.204;9.910;2022-10-20T07:26:12;5.40;99.90
19878;DHT22;10101;52.204;9.910;2022-10-20T07:28:40;5.50;99.90
19878;DHT22;10101;52.204;9.910;2022-10-20T07:31:10;5.60;99.90
19878;DHT22;10101;52.204;9.910;2022-10-20T07:33:37;5.60;99.90
19878;DHT22;10101;52.204;9.910;2022-10-20T07:36:10;5.80;99.90
19878;DHT22;10101;52.204;9.910;2022-10-20T07:38:37;6.00;99.90
19878;DHT22;10101;52.204;9.910;2022-10-20T07:41:06;6.10;99.90
19878;DHT22;10101;52.204;9.910;2022-10-20T07:43:33;6.30;99.90
19878;DHT22;10101;52.204;9.910;2022-10-20T07:46:00;6.30;99.90
19878;DHT22;10101;52.204;9.910;2022-10-20T07:48:27;6.40;99.90
19878;DHT22;10101;52.204;9.910;2022-10-20T07:50:54;6.50;99.90
19878;DHT22;10101;52.204;9.910;2022-10-20T07:53:37;6.70;99.90
19878;DHT22;10101;52.204;9.910;2022-10-20T07:56:06;6.80;99.90
19878;DHT22;10101;52.204;9.910;2022-10-20T07:58:33;6.90;99.90
19878;DHT22;10101;52.204;9.910;2022-10-20T08:01:00;7.00;99.90
19878;DHT22;10101;52.204;9.910;2022-10-20T08:03:26;7.10;99.90
19878;DHT22;10101;52.204;9.910;2022-10-20T08:05:53;7.30;99.90
19878;DHT22;10101;52.204;9.910;2022-10-20T08:08:20;7.40;99.90
19878;DHT22;10101;52.204;9.910;2022-10-20T08:10:47;7.50;99.90
19878;DHT22;10101;52.204;9.910;2022-10-20T08:13:15;7.50;99.90
19878;DHT22;10101;52.204;9.910;2022-10-20T08:15:41;7.50;99.90
19878;DHT22;10101;52.204;9.910;2022-10-20T08:18:08;7.60;99.90
19878;DHT22;10101;52.204;9.910;2022-10-20T08:20:35;7.70;99.90
19878;DHT22;10101;52.204;9.910;2022-10-20T08:23:02;7.80;99.90
19878;DHT22;10101;52.204;9.910;2022-10-20T08:25:29;8.00;99.90
19878;DHT22;10101;52.204;9.910;2022-10-20T08:27:56;8.00;99.90
19878;DHT22;10101;52.204;9.910;2022-10-20T08:30:24;8.20;99.90
19878;DHT22;10101;52.204;9.910;2022-10-20T08:32:51;8.00;99.90
19878;DHT22;10101;52.204;9.910;2022-10-20T08:35:18;8.00;99.90
19878;DHT22;10101;52.204;9.910;2022-10-20T08:37:45;8.00;99.90
19878;DHT22;10101;52.204;9.910;2022-10-20T08:40:16;8.10;99.90
19878;DHT22;10101;52.204;9.910;2022-10-20T08:42:43;8.10;99.90
19878;DHT22;10101;52.204;9.910;2022-10-20T08:45:14;8.20;99.90
19878;DHT22;10101;52.204;9.910;2022-10-20T08:47:44;8.10;99.90
19878;DHT22;10101;52.204;9.910;2022-10-20T08:50:13;8.20;99.90
19878;DHT22;10101;52.204;9.910;2022-10-20T08:52:42;8.40;99.90
19878;DHT22;10101;52.204;9.910;2022-10-20T08:55:18;8.40;99.90
19878;DHT22;10101;52.204;9.910;2022-10-20T08:57:47;8.50;99.90
19878;DHT22;10101;52.204;9.910;2022-10-20T09:00:18;8.70;99.90
19878;DHT22;10101;52.204;9.910;2022-10-20T09:02:49;8.70;99.90
19878;DHT22;10101;52.204;9.910;2022-10-20T09:05:20;8.90;99.90
19878;DHT22;10101;52.204;9.910;2022-10-20T09:07:48;9.00;99.90
19878;DHT22;10101;52.204;9.910;2022-10-20T09:10:29;9.00;99.90
19878;DHT22;10101;52.204;9.910;2022-10-20T09:12:57;9.10;99.90
19878;DHT22;10101;52.204;9.910;2022-10-20T09:15:25;9.20;99.90
19878;DHT22;10101;52.204;9.910;2022-10-20T09:17:55;9.40;99.90
19878;DHT22;10101;52.204;9.910;2022-10-20T09:20:27;9.30;99.90
19878;DHT22;10101;52.204;9.910;2022-10-20T09:22:55;9.30;99.90
19878;DHT22;10101;52.204;9.910;2022-10-20T09:25:24;9.40;99.90
19878;DHT22;10101;52.204;9.910;2022-10-20T09:27:52;9.50;99.90
19878;DHT22;10101;52.204;9.910;2022-10-20T09:30:22;9.60;99.90
19878;DHT22;10101;52.204;9.910;2022-10-20T09:32:50;9.60;99.90
19878;DHT22;10101;52.204;9.910;2022-10-20T09:35:27;9.60;99.90
19878;DHT22;10101;52.204;9.910;2022-10-20T09:38:03;9.70;99.90
19878;DHT22;10101;52.204;9.910;2022-10-20T09:40:31;9.90;99.90
19878;DHT22;10101;52.204;9.910;2022-10-20T09:43:00;10.10;99.90
19878;DHT22;10101;52.204;9.910;2022-10-20T09:45:29;10.00;99.90
19878;DHT22;10101;52.204;9.910;2022-10-20T09:48:01;10.10;99.90
19878;DHT22;10101;52.204;9.910;2022-10-20T09:50:33;10.20;99.90
19878;DHT22;10101;52.204;9.910;2022-10-20T09:53:04;10.30;99.90
19878;DHT22;10101;52.204;9.910;2022-10-20T09:55:33;10.40;99.90
19878;DHT22;10101;52.204;9.910;2022-10-20T09:58:02;10.30;99.90
19878;DHT22;10101;52.204;9.910;2022-10-20T10:00:31;10.20;99.90
19878;DHT22;10101;52.204;9.910;2022-10-20T10:03:22;10.20;99.90
19878;DHT22;10101;52.204;9.910;2022-10-20T10:05:52;10.30;99.90
19878;DHT22;10101;52.204;9.910;2022-10-20T10:08:22;10.30;99.90
19878;DHT22;10101;52.204;9.910;2022-10-20T10:11:00;10.30;99.90
19878;DHT22;10101;52.204;9.910;2022-10-20T10:13:30;10.40;99.90
19878;DHT22;10101;52.204;9.910;2022-10-20T10:15:59;10.60;99.90
19878;DHT22;10101;52.204;9.910;2022-10-20T10:18:27;10.70;99.90
19878;DHT22;10101;52.204;9.910;2022-10-20T10:21:00;10.70;99.90
19878;DHT22;10101;52.204;9.910;2022-10-20T10:23:29;10.90;99.90
19878;DHT22;10101;52.204;9.910;2022-10-20T10:25:57;10.80;99.90
19878;DHT22;10101;52.204;9.910;2022-10-20T10:28:35;10.90;99.90
19878;DHT22;10101;52.204;9.910;2022-10-20T10:31:19;10.90;99.90
19878;DHT22;10101;52.204;9.910;2022-10-20T10:33:47;11.00;99.90
19878;DHT22;10101;52.204;9.910;2022-10-20T10:36:27;11.00;99.90
19878;DHT22;10101;52.204;9.910;2022-10-20T10:38:56;11.20;99.90
19878;DHT22;10101;52.204;9.910;2022-10-20T10:41:30;11.20;99.90
19878;DHT22;10101;52.204;9.910;2022-10-20T10:44:04;11.30;99.90
19878;DHT22;10101;52.204;9.910;2022-10-20T10:46:36;11.30;99.90
19878;DHT22;10101;52.204;9.910;2022-10-20T10:49:19;11.40;99.90
19878;DHT22;10101;52.204;9.910;2022-10-20T10:51:55;11.60;99.90
19878;DHT22;10101;52.204;9.910;2022-10-20T10:54:40;11.70;99.90
19878;DHT22;10101;52.204;9.910;2022-10-20T10:57:14;11.80;99.90
19878;DHT22;10101;52.204;9.910;2022-10-20T10:59:42;12.10;99.90
19878;DHT22;10101;52.204;9.910;2022-10-20T11:05:44;12.30;99.90
19878;DHT22;10101;52.204;9.910;2022-10-20T11:08:25;12.50;99.90
19878;DHT22;10101;52.204;9.910;2022-10-20T11:11:00;12.50;99.90
19878;DHT22;10101;52.204;9.910;2022-10-20T11:13:31;12.50;99.90
19878;DHT22;10101;52.204;9.910;2022-10-20T11:16:07;12.40;99.90
19878;DHT22;10101;52.204;9.910;2022-10-20T11:19:08;12.50;99.90
19878;DHT22;10101;52.204;9.910;2022-10-20T11:21:44;12.70;99.90
19878;DHT22;10101;52.204;9.910;2022-10-20T11:24:26;12.80;99.90
19878;DHT22;10101;52.204;9.910;2022-10-20T11:27:02;12.80;99.90
19878;DHT22;10101;52.204;9.910;2022-10-20T11:29:32;12.90;99.90
19878;DHT22;10101;52.204;9.910;2022-10-20T11:32:09;13.10;99.90
19878;DHT22;10101;52.204;9.910;2022-10-20T11:34:42;13.00;99.90
19878;DHT22;10101;52.204;9.910;2022-10-20T11:37:17;13.10;99.90
19878;DHT22;10101;52.204;9.910;2022-10-20T11:39:50;13.10;99.90
19878;DHT22;10101;52.204;9.910;2022-10-20T11:42:24;13.30;99.90
19878;DHT22;10101;52.204;9.910;2022-10-20T11:44:53;13.20;99.90
19878;DHT22;10101;52.204;9.910;2022-10-20T11:47:25;13.10;99.90
19878;DHT22;10101;52.204;9.910;2022-10-20T11:49:53;13.10;99.90
19878;DHT22;10101;52.204;9.910;2022-10-20T11:52:46;13.00;99.90
19878;DHT22;10101;52.204;9.910;2022-10-20T11:55:30;13.00;99.90
19878;DHT22;10101;52.204;9.910;2022-10-20T11:58:15;13.10;99.90
19878;DHT22;10101;52.204;9.910;2022-10-20T12:00:59;13.10;99.90
19878;DHT22;10101;52.204;9.910;2022-10-20T12:03:53;13.20;99.90
19878;DHT22;10101;52.204;9.910;2022-10-20T12:06:51;13.20;99.90
19878;DHT22;10101;52.204;9.910;2022-10-20T12:09:43;13.20;99.90
19878;DHT22;10101;52.204;9.910;2022-10-20T12:12:18;13.20;99.90
19878;DHT22;10101;52.204;9.910;2022-10-20T12:14:50;13.20;99.90
19878;DHT22;10101;52.204;9.910;2022-10-20T12:17:27;13.10;99.90
19878;DHT22;10101;52.204;9.910;2022-10-20T12:22:56;13.20;99.90
19878;DHT22;10101;52.204;9.910;2022-10-20T12:25:38;13.30;99.90
19878;DHT22;10101;52.204;9.910;2022-10-20T12:28:40;13.30;99.90
19878;DHT22;10101;52.204;9.910;2022-10-20T12:31:07;13.30;99.90
19878;DHT22;10101;52.204;9.910;2022-10-20T12:34:00;13.40;99.90
19878;DHT22;10101;52.204;9.910;2022-10-20T12:36:31;13.60;99.90
19878;DHT22;10101;52.204;9.910;2022-10-20T12:39:17;13.50;99.90
19878;DHT22;10101;52.204;9.910;2022-10-20T12:41:55;13.70;99.90
19878;DHT22;10101;52.204;9.910;2022-10-20T12:44:26;13.70;99.90
19878;DHT22;10101;52.204;9.910;2022-10-20T12:46:56;13.70;99.90
19878;DHT22;10101;52.204;9.910;2022-10-20T12:49:28;13.80;99.90
19878;DHT22;10101;52.204;9.910;2022-10-20T12:51:57;14.00;99.90
19878;DHT22;10101;52.204;9.910;2022-10-20T12:54:28;14.20;99.90
19878;DHT22;10101;52.204;9.910;2022-10-20T12:57:01;14.20;99.90
19878;DHT22;10101;52.204;9.910;2022-10-20T12:59:39;14.10;99.90
19878;DHT22;10101;52.204;9.910;2022-10-20T13:02:29;14.30;99.90
19878;DHT22;10101;52.204;9.910;2022-10-20T13:04:59;14.30;99.90
19878;DHT22;10101;52.204;9.910;2022-10-20T13:08:00;14.40;99.90
19878;DHT22;10101;52.204;9.910;2022-10-20T13:10:31;14.40;99.90
19878;DHT22;10101;52.204;9.910;2022-10-20T13:13:32;14.40;99.90
19878;DHT22;10101;52.204;9.910;2022-10-20T13:16:03;14.30;99.90
19878;DHT22;10101;52.204;9.910;2022-10-20T13:18:43;14.40;99.90
19878;DHT22;10101;52.204;9.910;2022-10-20T13:21:24;14.50;99.90
19878;DHT22;10101;52.204;9.910;2022-10-20T13:23:55;14.40;99.90
19878;DHT22;10101;52.204;9.910;2022-10-20T13:26:25;14.40;99.90
19878;DHT22;10101;52.204;9.910;2022-10-20T13:28:56;14.20;99.90
19878;DHT22;10101;52.204;9.910;2022-10-20T13:31:28;14.20;99.90
19878;DHT22;10101;52.204;9.910;2022-10-20T13:34:02;14.30;99.90
19878;DHT22;10101;52.204;9.910;2022-10-20T13:36:43;14.10;99.90
19878;DHT22;10101;52.204;9.910;2022-10-20T13:39:16;14.10;99.90
19878;DHT22;10101;52.204;9.910;2022-10-20T13:41:53;14.30;99.90
19878;DHT22;10101;52.204;9.910;2022-10-20T13:44:30;14.20;99.90
19878;DHT22;10101;52.204;9.910;2022-10-20T13:47:07;14.20;99.90
19878;DHT22;10101;52.204;9.910;2022-10-20T13:49:46;14.30;99.90
19878;DHT22;10101;52.204;9.910;2022-10-20T13:52:16;14.50;99.90
19878;DHT22;10101;52.204;9.910;2022-10-20T13:54:45;14.50;99.90
19878;DHT22;10101;52.204;9.910;2022-10-20T13:57:24;14.30;99.90
19878;DHT22;10101;52.204;9.910;2022-10-20T13:59:55;14.20;99.90
19878;DHT22;10101;52.204;9.910;2022-10-20T14:02:26;14.10;99.90
19878;DHT22;10101;52.204;9.910;2022-10-20T14:05:04;14.20;99.90
19878;DHT22;10101;52.204;9.910;2022-10-20T14:07:36;14.20;99.90
19878;DHT22;10101;52.204;9.910;2022-10-20T14:10:03;14.10;99.90
19878;DHT22;10101;52.204;9.910;2022-10-20T14:12:30;14.00;99.90
19878;DHT22;10101;52.204;9.910;2022-10-20T14:15:13;14.00;99.90
19878;DHT22;10101;52.204;9.910;2022-10-20T14:17:54;13.90;99.90
19878;DHT22;10101;52.204;9.910;2022-10-20T14:20:22;14.00;99.90
19878;DHT22;10101;52.204;9.910;2022-10-20T14:22:50;13.80;99.90
19878;DHT22;10101;52.204;9.910;2022-10-20T14:25:18;13.80;99.90
19878;DHT22;10101;52.204;9.910;2022-10-20T14:27:45;13.80;99.90
19878;DHT22;10101;52.204;9.910;2022-10-20T14:30:15;13.70;99.90
19878;DHT22;10101;52.204;9.910;2022-10-20T14:32:44;13.80;99.90
19878;DHT22;10101;52.204;9.910;2022-10-20T14:35:22;13.70;99.90
19878;DHT22;10101;52.204;9.910;2022-10-20T14:37:53;13.60;99.90
19878;DHT22;10101;52.204;9.910;2022-10-20T14:40:22;13.60;99.90
19878;DHT22;10101;52.204;9.910;2022-10-20T14:42:50;13.60;99.90
19878;DHT22;10101;52.204;9.910;2022-10-20T14:45:21;13.50;99.90
19878;DHT22;10101;52.204;9.910;2022-10-20T14:47:48;13.50;99.90
19878;DHT22;10101;52.204;9.910;2022-10-20T14:50:19;13.40;99.90
19878;DHT22;10101;52.204;9.910;2022-10-20T14:52:48;13.40;99.90
19878;DHT22;10101;52.204;9.910;2022-10-20T14:55:31;13.40;99.90
19878;DHT22;10101;52.204;9.910;2022-10-20T14:57:58;13.30;99.90
19878;DHT22;10101;52.204;9.910;2022-10-20T15:00:30;13.30;99.90
19878;DHT22;10101;52.204;9.910;2022-10-20T15:02:58;13.30;99.90
19878;DHT22;10101;52.204;9.910;2022-10-20T15:05:37;13.40;1.00
19878;DHT22;10101;52.204;9.910;2022-10-20T15:08:24;13.40;1.00
19878;DHT22;10101;52.204;9.910;2022-10-20T15:10:51;13.40;99.90
19878;DHT22;10101;52.204;9.910;2022-10-20T15:13:20;13.30;94.20
19878;DHT22;10101;52.204;9.910;2022-10-20T15:15:49;13.40;1.00
19878;DHT22;10101;52.204;9.910;2022-10-20T15:18:18;13.30;1.00
19878;DHT22;10101;52.204;9.910;2022-10-20T15:20:46;13.30;1.00
19878;DHT22;10101;52.204;9.910;2022-10-20T15:23:14;13.30;99.90
19878;DHT22;10101;52.204;9.910;2022-10-20T15:25:46;13.30;99.90
19878;DHT22;10101;52.204;9.910;2022-10-20T15:28:33;13.30;99.90
19878;DHT22;10101;52.204;9.910;2022-10-20T15:31:04;13.30;36.70
19878;DHT22;10101;52.204;9.910;2022-10-20T15:33:31;13.30;1.00
19878;DHT22;10101;52.204;9.910;2022-10-20T15:35:58;13.20;1.00
19878;DHT22;10101;52.204;9.910;2022-10-20T15:38:26;13.30;1.00
19878;DHT22;10101;52.204;9.910;2022-10-20T15:40:52;13.30;1.00
19878;DHT22;10101;52.204;9.910;2022-10-20T15:43:19;13.30;99.90
19878;DHT22;10101;52.204;9.910;2022-10-20T15:45:50;13.20;99.90
19878;DHT22;10101;52.204;9.910;2022-10-20T15:48:20;13.20;99.90
19878;DHT22;10101;52.204;9.910;2022-10-20T15:50:48;13.20;99.90
19878;DHT22;10101;52.204;9.910;2022-10-20T15:53:15;13.10;99.90
19878;DHT22;10101;52.204;9.910;2022-10-20T15:55:43;13.20;99.90
19878;DHT22;10101;52.204;9.910;2022-10-20T15:58:10;13.20;99.90
19878;DHT22;10101;52.204;9.910;2022-10-20T16:00:37;13.10;99.90
19878;DHT22;10101;52.204;9.910;2022-10-20T16:03:04;13.20;99.90
19878;DHT22;10101;52.204;9.910;2022-10-20T16:05:32;13.20;99.90
19878;DHT22;10101;52.204;9.910;2022-10-20T16:07:59;13.30;1.00
19878;DHT22;10101;52.204;9.910;2022-10-20T16:10:26;13.40;1.00